sensor_id;sensor_type;location;lat;lon;timestamp;P1;durP1;ratioP1;P2;durP2;ratioP2
38226;SDS011;24026;49.446;8.576;2024-01-30T00:02:02;140.27;;;125.07;;
38226;SDS011;24026;49.446;8.576;2024-01-30T00:04:22;141.23;;;125.95;;
38226;SDS011;24026;49.446;8.576;2024-01-30T00:06:43;138.05;;;123.20;;
38226;SDS011;24026;49.446;8.576;2024-01-30T00:09:04;140.88;;;125.63;;
38226;SDS011;24026;49.446;8.576;2024-01-30T00:11:25;138.23;;;123.07;;
38226;SDS011;24026;49.446;8.576;2024-01-30T00:13:45;137.77;;;122.90;;
38226;SDS011;24026;49.446;8.576;2024-01-30T00:16:06;139.85;;;124.80;;
38226;SDS011;24026;49.446;8.576;2024-01-30T00:18:26;137.77;;;122.88;;
38226;SDS011;24026;49.446;8.576;2024-01-30T00:20:47;138.10;;;123.35;;
38226;SDS011;24026;49.446;8.576;2024-01-30T00:23:07;137.82;;;123.05;;
38226;SDS011;24026;49.446;8.576;2024-01-30T00:25:28;137.02;;;122.32;;
38226;SDS011;24026;49.446;8.576;2024-01-30T00:27:48;136.90;;;122.10;;
38226;SDS011;24026;49.446;8.576;2024-01-30T00:30:09;136.93;;;122.28;;
38226;SDS011;24026;49.446;8.576;2024-01-30T00:32:29;137.45;;;122.50;;
38226;SDS011;24026;49.446;8.576;2024-01-30T00:34:50;137.70;;;123.00;;
38226;SDS011;24026;49.446;8.576;2024-01-30T00:37:11;136.98;;;122.30;;
38226;SDS011;24026;49.446;8.576;2024-01-30T00:39:31;136.48;;;121.72;;
38226;SDS011;24026;49.446;8.576;2024-01-30T00:41:52;136.60;;;121.63;;
38226;SDS011;24026;49.446;8.576;2024-01-30T00:44:12;136.18;;;121.63;;
38226;SDS011;24026;49.446;8.576;2024-01-30T00:46:32;134.15;;;119.72;;
38226;SDS011;24026;49.446;8.576;2024-01-30T00:48:53;134.88;;;120.25;;
38226;SDS011;24026;49.446;8.576;2024-01-30T00:51:13;135.77;;;121.30;;
38226;SDS011;24026;49.446;8.576;2024-01-30T00:53:34;135.20;;;120.60;;
38226;SDS011;24026;49.446;8.576;2024-01-30T00:55:55;134.82;;;120.30;;
38226;SDS011;24026;49.446;8.576;2024-01-30T00:58:15;134.80;;;120.22;;
38226;SDS011;24026;49.446;8.576;2024-01-30T01:00:36;132.85;;;118.50;;
38226;SDS011;24026;49.446;8.576;2024-01-30T01:02:57;133.40;;;118.95;;
38226;SDS011;24026;49.446;8.576;2024-01-30T01:05:18;134.40;;;119.90;;
38226;SDS011;24026;49.446;8.576;2024-01-30T01:07:38;135.00;;;120.60;;
38226;SDS011;24026;49.446;8.576;2024-01-30T01:10:00;133.20;;;118.68;;
38226;SDS011;24026;49.446;8.576;2024-01-30T01:12:20;133.60;;;119.18;;
38226;SDS011;24026;49.446;8.576;2024-01-30T01:14:41;133.93;;;119.38;;
38226;SDS011;24026;49.446;8.576;2024-01-30T01:17:02;132.95;;;118.47;;
38226;SDS011;24026;49.446;8.576;2024-01-30T01:19:22;133.27;;;118.82;;
38226;SDS011;24026;49.446;8.576;2024-01-30T01:21:43;130.73;;;116.47;;
38226;SDS011;24026;49.446;8.576;2024-01-30T01:24:03;133.43;;;118.93;;
38226;SDS011;24026;49.446;8.576;2024-01-30T01:26:24;132.90;;;117.90;;
38226;SDS011;24026;49.446;8.576;2024-01-30T01:28:44;133.85;;;119.22;;
38226;SDS011;24026;49.446;8.576;2024-01-30T01:31:05;132.15;;;117.85;;
38226;SDS011;24026;49.446;8.576;2024-01-30T01:33:25;132.15;;;117.88;;
38226;SDS011;24026;49.446;8.576;2024-01-30T01:35:46;131.55;;;117.38;;
38226;SDS011;24026;49.446;8.576;2024-01-30T01:38:06;131.93;;;117.78;;
38226;SDS011;24026;49.446;8.576;2024-01-30T01:40:27;133.32;;;118.97;;
38226;SDS011;24026;49.446;8.576;2024-01-30T01:42:47;132.75;;;118.43;;
38226;SDS011;24026;49.446;8.576;2024-01-30T01:45:09;133.57;;;119.10;;
38226;SDS011;24026;49.446;8.576;2024-01-30T01:47:29;131.77;;;117.57;;
38226;SDS011;24026;49.446;8.576;2024-01-30T01:49:50;135.00;;;120.43;;
38226;SDS011;24026;49.446;8.576;2024-01-30T01:52:10;132.73;;;118.47;;
38226;SDS011;24026;49.446;8.576;2024-01-30T01:54:31;132.55;;;118.20;;
38226;SDS011;24026;49.446;8.576;2024-01-30T01:56:52;132.80;;;118.47;;
38226;SDS011;24026;49.446;8.576;2024-01-30T01:59:13;133.75;;;119.35;;
38226;SDS011;24026;49.446;8.576;2024-01-30T02:01:34;130.90;;;116.60;;
38226;SDS011;24026;49.446;8.576;2024-01-30T02:03:56;130.65;;;116.47;;
38226;SDS011;24026;49.446;8.576;2024-01-30T02:06:18;131.23;;;116.55;;
38226;SDS011;24026;49.446;8.576;2024-01-30T02:08:39;131.10;;;116.80;;
38226;SDS011;24026;49.446;8.576;2024-01-30T02:10:59;130.38;;;116.15;;
38226;SDS011;24026;49.446;8.576;2024-01-30T02:13:21;131.65;;;117.50;;
38226;SDS011;24026;49.446;8.576;2024-01-30T02:15:41;130.57;;;116.47;;
38226;SDS011;24026;49.446;8.576;2024-01-30T02:18:01;131.60;;;117.35;;
38226;SDS011;24026;49.446;8.576;2024-01-30T02:20:23;129.02;;;115.07;;
38226;SDS011;24026;49.446;8.576;2024-01-30T02:22:45;131.75;;;117.57;;
38226;SDS011;24026;49.446;8.576;2024-01-30T02:25:06;130.27;;;116.18;;
38226;SDS011;24026;49.446;8.576;2024-01-30T02:27:27;130.38;;;116.38;;
38226;SDS011;24026;49.446;8.576;2024-01-30T02:29:47;130.07;;;116.03;;
38226;SDS011;24026;49.446;8.576;2024-01-30T02:32:07;129.10;;;115.07;;
38226;SDS011;24026;49.446;8.576;2024-01-30T02:34:28;131.02;;;116.70;;
38226;SDS011;24026;49.446;8.576;2024-01-30T02:36:48;131.52;;;117.32;;
38226;SDS011;24026;49.446;8.576;2024-01-30T02:39:09;131.85;;;116.18;;
38226;SDS011;24026;49.446;8.576;2024-01-30T02:41:29;129.45;;;115.40;;
38226;SDS011;24026;49.446;8.576;2024-01-30T02:43:50;130.25;;;116.00;;
38226;SDS011;24026;49.446;8.576;2024-01-30T02:46:10;131.20;;;117.10;;
38226;SDS011;24026;49.446;8.576;2024-01-30T02:48:31;129.75;;;115.65;;
38226;SDS011;24026;49.446;8.576;2024-01-30T02:50:51;130.18;;;115.88;;
38226;SDS011;24026;49.446;8.576;2024-01-30T02:53:11;128.27;;;114.25;;
38226;SDS011;24026;49.446;8.576;2024-01-30T02:55:32;125.85;;;112.03;;
38226;SDS011;24026;49.446;8.576;2024-01-30T02:57:53;128.57;;;114.70;;
38226;SDS011;24026;49.446;8.576;2024-01-30T03:00:13;128.45;;;114.55;;
38226;SDS011;24026;49.446;8.576;2024-01-30T03:02:34;130.23;;;116.13;;
38226;SDS011;24026;49.446;8.576;2024-01-30T03:04:55;129.05;;;115.10;;
38226;SDS011;24026;49.446;8.576;2024-01-30T03:07:16;127.53;;;113.80;;
38226;SDS011;24026;49.446;8.576;2024-01-30T03:09:36;128.38;;;114.50;;
38226;SDS011;24026;49.446;8.576;2024-01-30T03:11:57;128.13;;;114.15;;
38226;SDS011;24026;49.446;8.576;2024-01-30T03:14:17;128.35;;;114.45;;
38226;SDS011;24026;49.446;8.576;2024-01-30T03:16:38;127.50;;;113.55;;
38226;SDS011;24026;49.446;8.576;2024-01-30T03:18:58;127.85;;;113.95;;
38226;SDS011;24026;49.446;8.576;2024-01-30T03:21:21;126.93;;;113.10;;
38226;SDS011;24026;49.446;8.576;2024-01-30T03:23:41;128.40;;;114.53;;
38226;SDS011;24026;49.446;8.576;2024-01-30T03:26:02;127.22;;;113.38;;
38226;SDS011;24026;49.446;8.576;2024-01-30T03:28:24;126.03;;;112.25;;
38226;SDS011;24026;49.446;8.576;2024-01-30T03:30:44;127.05;;;113.35;;
38226;SDS011;24026;49.446;8.576;2024-01-30T03:33:05;126.75;;;113.07;;
38226;SDS011;24026;49.446;8.576;2024-01-30T03:35:25;126.43;;;112.50;;
38226;SDS011;24026;49.446;8.576;2024-01-30T03:37:46;125.95;;;112.28;;
38226;SDS011;24026;49.446;8.576;2024-01-30T03:40:06;126.88;;;113.18;;
38226;SDS011;24026;49.446;8.576;2024-01-30T03:42:27;127.35;;;113.53;;
38226;SDS011;24026;49.446;8.576;2024-01-30T03:44:47;125.72;;;112.10;;
38226;SDS011;24026;49.446;8.576;2024-01-30T03:47:08;126.28;;;112.57;;
38226;SDS011;24026;49.446;8.576;2024-01-30T03:49:28;127.40;;;113.50;;
38226;SDS011;24026;49.446;8.576;2024-01-30T03:51:49;127.55;;;113.75;;
38226;SDS011;24026;49.446;8.576;2024-01-30T03:54:09;126.82;;;112.93;;
38226;SDS011;24026;49.446;8.576;2024-01-30T03:56:29;127.45;;;113.45;;
38226;SDS011;24026;49.446;8.576;2024-01-30T03:58:50;125.25;;;111.57;;
38226;SDS011;24026;49.446;8.576;2024-01-30T04:01:14;127.65;;;113.78;;
38226;SDS011;24026;49.446;8.576;2024-01-30T04:03:35;126.45;;;112.65;;
38226;SDS011;24026;49.446;8.576;2024-01-30T04:05:55;125.55;;;111.78;;
38226;SDS011;24026;49.446;8.576;2024-01-30T04:08:15;125.35;;;111.65;;
38226;SDS011;24026;49.446;8.576;2024-01-30T04:10:36;125.15;;;111.53;;
38226;SDS011;24026;49.446;8.576;2024-01-30T04:12:56;126.93;;;112.97;;
38226;SDS011;24026;49.446;8.576;2024-01-30T04:15:17;125.72;;;112.05;;
38226;SDS011;24026;49.446;8.576;2024-01-30T04:17:38;125.68;;;112.10;;
38226;SDS011;24026;49.446;8.576;2024-01-30T04:19:58;124.97;;;111.32;;
38226;SDS011;24026;49.446;8.576;2024-01-30T04:22:19;124.28;;;110.65;;
38226;SDS011;24026;49.446;8.576;2024-01-30T04:24:39;125.75;;;112.07;;
38226;SDS011;24026;49.446;8.576;2024-01-30T04:27:00;125.18;;;111.63;;
38226;SDS011;24026;49.446;8.576;2024-01-30T04:29:20;123.40;;;109.88;;
38226;SDS011;24026;49.446;8.576;2024-01-30T04:31:42;123.45;;;109.97;;
38226;SDS011;24026;49.446;8.576;2024-01-30T04:34:02;125.07;;;111.40;;
38226;SDS011;24026;49.446;8.576;2024-01-30T04:36:23;125.10;;;111.50;;
38226;SDS011;24026;49.446;8.576;2024-01-30T04:38:43;126.35;;;112.53;;
38226;SDS011;24026;49.446;8.576;2024-01-30T04:41:04;125.38;;;111.68;;
38226;SDS011;24026;49.446;8.576;2024-01-30T04:43:24;124.65;;;111.05;;
38226;SDS011;24026;49.446;8.576;2024-01-30T04:45:46;124.65;;;110.97;;
38226;SDS011;24026;49.446;8.576;2024-01-30T04:48:06;123.57;;;110.07;;
38226;SDS011;24026;49.446;8.576;2024-01-30T04:50:27;125.90;;;112.25;;
38226;SDS011;24026;49.446;8.576;2024-01-30T04:52:47;123.68;;;110.07;;
38226;SDS011;24026;49.446;8.576;2024-01-30T04:55:08;124.65;;;111.05;;
38226;SDS011;24026;49.446;8.576;2024-01-30T04:57:28;123.00;;;109.57;;
38226;SDS011;24026;49.446;8.576;2024-01-30T04:59:49;124.65;;;111.20;;
38226;SDS011;24026;49.446;8.576;2024-01-30T05:02:09;125.45;;;111.85;;
38226;SDS011;24026;49.446;8.576;2024-01-30T05:04:29;125.28;;;111.65;;
38226;SDS011;24026;49.446;8.576;2024-01-30T05:06:50;123.85;;;110.40;;
38226;SDS011;24026;49.446;8.576;2024-01-30T05:09:10;124.38;;;110.78;;
38226;SDS011;24026;49.446;8.576;2024-01-30T05:11:31;124.82;;;111.22;;
38226;SDS011;24026;49.446;8.576;2024-01-30T05:13:56;124.78;;;110.95;;
38226;SDS011;24026;49.446;8.576;2024-01-30T05:16:17;125.55;;;111.97;;
38226;SDS011;24026;49.446;8.576;2024-01-30T05:18:37;124.15;;;110.85;;
38226;SDS011;24026;49.446;8.576;2024-01-30T05:20:58;126.13;;;112.55;;
38226;SDS011;24026;49.446;8.576;2024-01-30T05:23:18;126.55;;;112.75;;
38226;SDS011;24026;49.446;8.576;2024-01-30T05:25:39;127.13;;;113.35;;
38226;SDS011;24026;49.446;8.576;2024-01-30T05:27:59;126.07;;;112.43;;
38226;SDS011;24026;49.446;8.576;2024-01-30T05:30:19;125.60;;;112.05;;
38226;SDS011;24026;49.446;8.576;2024-01-30T05:32:40;126.47;;;112.88;;
38226;SDS011;24026;49.446;8.576;2024-01-30T05:35:00;127.63;;;114.03;;
38226;SDS011;24026;49.446;8.576;2024-01-30T05:37:21;126.43;;;113.00;;
38226;SDS011;24026;49.446;8.576;2024-01-30T05:39:42;128.35;;;114.72;;
38226;SDS011;24026;49.446;8.576;2024-01-30T05:42:04;126.72;;;113.03;;
38226;SDS011;24026;49.446;8.576;2024-01-30T05:44:24;128.07;;;114.60;;
38226;SDS011;24026;49.446;8.576;2024-01-30T05:46:46;128.15;;;114.65;;
38226;SDS011;24026;49.446;8.576;2024-01-30T05:49:06;129.55;;;115.55;;
38226;SDS011;24026;49.446;8.576;2024-01-30T05:51:28;129.35;;;115.75;;
38226;SDS011;24026;49.446;8.576;2024-01-30T05:53:48;129.68;;;115.97;;
38226;SDS011;24026;49.446;8.576;2024-01-30T05:56:11;128.85;;;115.35;;
38226;SDS011;24026;49.446;8.576;2024-01-30T05:58:32;129.20;;;115.68;;
38226;SDS011;24026;49.446;8.576;2024-01-30T06:00:58;129.43;;;115.93;;
38226;SDS011;24026;49.446;8.576;2024-01-30T06:03:20;127.20;;;113.93;;
38226;SDS011;24026;49.446;8.576;2024-01-30T06:05:40;129.98;;;116.35;;
38226;SDS011;24026;49.446;8.576;2024-01-30T06:08:02;129.63;;;116.10;;
38226;SDS011;24026;49.446;8.576;2024-01-30T06:10:24;127.88;;;114.53;;
38226;SDS011;24026;49.446;8.576;2024-01-30T06:12:46;128.48;;;115.10;;
38226;SDS011;24026;49.446;8.576;2024-01-30T06:15:10;130.25;;;116.65;;
38226;SDS011;24026;49.446;8.576;2024-01-30T06:17:38;130.68;;;117.00;;
38226;SDS011;24026;49.446;8.576;2024-01-30T06:20:00;129.98;;;116.28;;
38226;SDS011;24026;49.446;8.576;2024-01-30T06:22:27;130.50;;;117.00;;
38226;SDS011;24026;49.446;8.576;2024-01-30T06:24:51;132.43;;;118.07;;
38226;SDS011;24026;49.446;8.576;2024-01-30T06:27:13;130.68;;;116.88;;
38226;SDS011;24026;49.446;8.576;2024-01-30T06:29:35;130.27;;;116.80;;
38226;SDS011;24026;49.446;8.576;2024-01-30T06:31:57;133.93;;;119.78;;
38226;SDS011;24026;49.446;8.576;2024-01-30T06:34:19;133.68;;;119.80;;
38226;SDS011;24026;49.446;8.576;2024-01-30T06:36:41;136.50;;;122.07;;
38226;SDS011;24026;49.446;8.576;2024-01-30T06:39:06;134.45;;;120.55;;
38226;SDS011;24026;49.446;8.576;2024-01-30T06:41:29;139.60;;;124.82;;
38226;SDS011;24026;49.446;8.576;2024-01-30T06:43:51;136.55;;;121.88;;
38226;SDS011;24026;49.446;8.576;2024-01-30T06:46:15;137.32;;;122.28;;
38226;SDS011;24026;49.446;8.576;2024-01-30T06:48:36;132.63;;;118.68;;
38226;SDS011;24026;49.446;8.576;2024-01-30T06:50:57;134.43;;;120.13;;
38226;SDS011;24026;49.446;8.576;2024-01-30T06:53:18;134.52;;;120.05;;
38226;SDS011;24026;49.446;8.576;2024-01-30T06:55:39;140.23;;;125.38;;
38226;SDS011;24026;49.446;8.576;2024-01-30T06:58:01;139.95;;;125.40;;
38226;SDS011;24026;49.446;8.576;2024-01-30T07:00:30;140.30;;;125.72;;
38226;SDS011;24026;49.446;8.576;2024-01-30T07:02:51;151.05;;;135.27;;
38226;SDS011;24026;49.446;8.576;2024-01-30T07:05:11;150.85;;;134.63;;
38226;SDS011;24026;49.446;8.576;2024-01-30T07:07:31;156.15;;;139.73;;
38226;SDS011;24026;49.446;8.576;2024-01-30T07:09:53;171.93;;;153.75;;
38226;SDS011;24026;49.446;8.576;2024-01-30T07:12:17;184.43;;;165.48;;
38226;SDS011;24026;49.446;8.576;2024-01-30T07:14:38;178.40;;;158.93;;
38226;SDS011;24026;49.446;8.576;2024-01-30T07:16:59;204.77;;;183.35;;
38226;SDS011;24026;49.446;8.576;2024-01-30T07:19:19;210.38;;;188.38;;
38226;SDS011;24026;49.446;8.576;2024-01-30T07:21:40;228.73;;;205.20;;
38226;SDS011;24026;49.446;8.576;2024-01-30T07:24:00;239.98;;;215.02;;
38226;SDS011;24026;49.446;8.576;2024-01-30T07:26:20;230.00;;;206.48;;
38226;SDS011;24026;49.446;8.576;2024-01-30T07:28:41;210.80;;;188.95;;
38226;SDS011;24026;49.446;8.576;2024-01-30T07:31:01;219.80;;;197.18;;
38226;SDS011;24026;49.446;8.576;2024-01-30T07:33:22;213.80;;;191.60;;
38226;SDS011;24026;49.446;8.576;2024-01-30T07:35:43;217.18;;;194.45;;
38226;SDS011;24026;49.446;8.576;2024-01-30T07:38:03;222.27;;;199.52;;
38226;SDS011;24026;49.446;8.576;2024-01-30T07:40:24;232.90;;;208.52;;
38226;SDS011;24026;49.446;8.576;2024-01-30T07:42:48;236.32;;;212.23;;
38226;SDS011;24026;49.446;8.576;2024-01-30T07:45:09;231.32;;;207.20;;
38226;SDS011;24026;49.446;8.576;2024-01-30T07:47:30;235.15;;;210.98;;
38226;SDS011;24026;49.446;8.576;2024-01-30T07:49:52;233.93;;;210.10;;
38226;SDS011;24026;49.446;8.576;2024-01-30T07:52:12;233.90;;;209.40;;
38226;SDS011;24026;49.446;8.576;2024-01-30T07:54:33;236.68;;;212.05;;
38226;SDS011;24026;49.446;8.576;2024-01-30T07:56:53;238.77;;;214.20;;
38226;SDS011;24026;49.446;8.576;2024-01-30T07:59:14;253.07;;;226.65;;
38226;SDS011;24026;49.446;8.576;2024-01-30T08:01:37;258.20;;;231.20;;
38226;SDS011;24026;49.446;8.576;2024-01-30T08:06:19;273.52;;;244.68;;
38226;SDS011;24026;49.446;8.576;2024-01-30T08:08:39;297.45;;;265.45;;
38226;SDS011;24026;49.446;8.576;2024-01-30T08:11:00;305.48;;;272.27;;
38226;SDS011;24026;49.446;8.576;2024-01-30T08:13:20;304.42;;;272.38;;
38226;SDS011;24026;49.446;8.576;2024-01-30T08:15:41;295.65;;;264.15;;
38226;SDS011;24026;49.446;8.576;2024-01-30T08:18:02;302.85;;;270.42;;
38226;SDS011;24026;49.446;8.576;2024-01-30T08:20:23;307.60;;;275.30;;
38226;SDS011;24026;49.446;8.576;2024-01-30T08:22:44;306.98;;;275.20;;
38226;SDS011;24026;49.446;8.576;2024-01-30T08:25:05;308.13;;;276.42;;
38226;SDS011;24026;49.446;8.576;2024-01-30T08:27:26;301.15;;;270.17;;
38226;SDS011;24026;49.446;8.576;2024-01-30T08:29:47;299.13;;;268.35;;
38226;SDS011;24026;49.446;8.576;2024-01-30T08:32:07;298.45;;;267.55;;
38226;SDS011;24026;49.446;8.576;2024-01-30T08:34:28;299.88;;;268.83;;
38226;SDS011;24026;49.446;8.576;2024-01-30T08:36:48;299.83;;;268.88;;
38226;SDS011;24026;49.446;8.576;2024-01-30T08:39:08;294.45;;;264.58;;
38226;SDS011;24026;49.446;8.576;2024-01-30T08:41:29;295.27;;;264.85;;
38226;SDS011;24026;49.446;8.576;2024-01-30T08:43:49;296.98;;;266.38;;
38226;SDS011;24026;49.446;8.576;2024-01-30T08:46:10;291.60;;;261.05;;
38226;SDS011;24026;49.446;8.576;2024-01-30T08:48:31;290.85;;;260.80;;
38226;SDS011;24026;49.446;8.576;2024-01-30T08:50:51;294.45;;;264.45;;
38226;SDS011;24026;49.446;8.576;2024-01-30T08:53:12;290.83;;;261.15;;
38226;SDS011;24026;49.446;8.576;2024-01-30T08:55:32;285.77;;;256.90;;
38226;SDS011;24026;49.446;8.576;2024-01-30T08:57:53;286.38;;;257.05;;
38226;SDS011;24026;49.446;8.576;2024-01-30T09:00:14;288.08;;;258.10;;
38226;SDS011;24026;49.446;8.576;2024-01-30T09:02:34;286.73;;;257.10;;
38226;SDS011;24026;49.446;8.576;2024-01-30T09:04:55;285.83;;;256.50;;
38226;SDS011;24026;49.446;8.576;2024-01-30T09:07:15;287.17;;;257.63;;
38226;SDS011;24026;49.446;8.576;2024-01-30T09:09:37;284.75;;;255.68;;
38226;SDS011;24026;49.446;8.576;2024-01-30T09:11:59;286.48;;;256.58;;
38226;SDS011;24026;49.446;8.576;2024-01-30T09:14:24;282.33;;;253.18;;
38226;SDS011;24026;49.446;8.576;2024-01-30T09:16:44;284.77;;;255.73;;
38226;SDS011;24026;49.446;8.576;2024-01-30T09:19:05;312.15;;;279.58;;
38226;SDS011;24026;49.446;8.576;2024-01-30T09:21:26;321.63;;;287.92;;
38226;SDS011;24026;49.446;8.576;2024-01-30T09:23:46;341.73;;;305.77;;
38226;SDS011;24026;49.446;8.576;2024-01-30T09:26:07;403.23;;;360.05;;
38226;SDS011;24026;49.446;8.576;2024-01-30T09:28:28;366.92;;;328.10;;
38226;SDS011;24026;49.446;8.576;2024-01-30T09:30:49;343.23;;;306.73;;
38226;SDS011;24026;49.446;8.576;2024-01-30T09:33:09;382.33;;;341.05;;
38226;SDS011;24026;49.446;8.576;2024-01-30T09:35:30;401.38;;;358.70;;
38226;SDS011;24026;49.446;8.576;2024-01-30T09:37:50;397.30;;;354.45;;
38226;SDS011;24026;49.446;8.576;2024-01-30T09:40:21;397.17;;;355.02;;
38226;SDS011;24026;49.446;8.576;2024-01-30T09:42:43;396.30;;;354.15;;
38226;SDS011;24026;49.446;8.576;2024-01-30T09:45:06;398.38;;;355.30;;
38226;SDS011;24026;49.446;8.576;2024-01-30T09:47:27;397.27;;;354.75;;
38226;SDS011;24026;49.446;8.576;2024-01-30T09:49:47;392.45;;;351.13;;
38226;SDS011;24026;49.446;8.576;2024-01-30T09:52:08;388.85;;;347.70;;
38226;SDS011;24026;49.446;8.576;2024-01-30T09:54:32;391.88;;;350.77;;
38226;SDS011;24026;49.446;8.576;2024-01-30T09:56:52;388.13;;;347.08;;
38226;SDS011;24026;49.446;8.576;2024-01-30T09:59:13;385.10;;;344.90;;
38226;SDS011;24026;49.446;8.576;2024-01-30T10:01:34;384.02;;;343.35;;
38226;SDS011;24026;49.446;8.576;2024-01-30T10:03:55;382.38;;;341.83;;
38226;SDS011;24026;49.446;8.576;2024-01-30T10:06:15;381.65;;;341.40;;
38226;SDS011;24026;49.446;8.576;2024-01-30T10:08:37;378.58;;;338.88;;
38226;SDS011;24026;49.446;8.576;2024-01-30T10:10:57;378.48;;;338.20;;
38226;SDS011;24026;49.446;8.576;2024-01-30T10:13:18;378.55;;;339.25;;
38226;SDS011;24026;49.446;8.576;2024-01-30T10:15:38;374.42;;;335.20;;
38226;SDS011;24026;49.446;8.576;2024-01-30T10:18:00;369.45;;;331.10;;
38226;SDS011;24026;49.446;8.576;2024-01-30T10:20:20;366.38;;;328.02;;
38226;SDS011;24026;49.446;8.576;2024-01-30T10:22:42;362.65;;;324.20;;
38226;SDS011;24026;49.446;8.576;2024-01-30T10:25:04;368.52;;;330.08;;
38226;SDS011;24026;49.446;8.576;2024-01-30T10:27:27;359.92;;;323.00;;
38226;SDS011;24026;49.446;8.576;2024-01-30T10:29:48;339.08;;;303.92;;
38226;SDS011;24026;49.446;8.576;2024-01-30T10:32:10;333.10;;;298.67;;
38226;SDS011;24026;49.446;8.576;2024-01-30T10:34:32;322.88;;;289.73;;
38226;SDS011;24026;49.446;8.576;2024-01-30T10:36:59;334.60;;;299.73;;
38226;SDS011;24026;49.446;8.576;2024-01-30T10:39:37;316.83;;;284.60;;
38226;SDS011;24026;49.446;8.576;2024-01-30T10:42:04;321.45;;;288.33;;
38226;SDS011;24026;49.446;8.576;2024-01-30T10:44:25;317.75;;;285.02;;
38226;SDS011;24026;49.446;8.576;2024-01-30T10:46:51;331.70;;;297.17;;
38226;SDS011;24026;49.446;8.576;2024-01-30T10:49:23;287.08;;;257.08;;
38226;SDS011;24026;49.446;8.576;2024-01-30T10:51:46;291.38;;;261.48;;
38226;SDS011;24026;49.446;8.576;2024-01-30T10:54:08;285.70;;;256.60;;
38226;SDS011;24026;49.446;8.576;2024-01-30T10:56:30;285.58;;;255.80;;
38226;SDS011;24026;49.446;8.576;2024-01-30T10:58:55;285.08;;;256.02;;
38226;SDS011;24026;49.446;8.576;2024-01-30T11:01:15;295.63;;;265.95;;
38226;SDS011;24026;49.446;8.576;2024-01-30T11:03:36;284.60;;;256.17;;
38226;SDS011;24026;49.446;8.576;2024-01-30T11:06:00;285.40;;;256.23;;
38226;SDS011;24026;49.446;8.576;2024-01-30T11:08:24;281.00;;;252.52;;
38226;SDS011;24026;49.446;8.576;2024-01-30T11:10:46;295.13;;;264.92;;
38226;SDS011;24026;49.446;8.576;2024-01-30T11:13:10;302.90;;;271.67;;
38226;SDS011;24026;49.446;8.576;2024-01-30T11:15:33;302.23;;;271.43;;
38226;SDS011;24026;49.446;8.576;2024-01-30T11:17:54;306.65;;;274.92;;
38226;SDS011;24026;49.446;8.576;2024-01-30T11:20:15;304.92;;;273.45;;
38226;SDS011;24026;49.446;8.576;2024-01-30T11:22:37;303.20;;;272.58;;
38226;SDS011;24026;49.446;8.576;2024-01-30T11:24:58;293.55;;;263.85;;
38226;SDS011;24026;49.446;8.576;2024-01-30T11:27:20;287.10;;;258.33;;
38226;SDS011;24026;49.446;8.576;2024-01-30T11:29:42;302.45;;;271.75;;
38226;SDS011;24026;49.446;8.576;2024-01-30T11:32:02;300.00;;;268.98;;
38226;SDS011;24026;49.446;8.576;2024-01-30T11:34:24;303.30;;;272.33;;
38226;SDS011;24026;49.446;8.576;2024-01-30T11:36:45;314.42;;;282.17;;
38226;SDS011;24026;49.446;8.576;2024-01-30T11:39:29;309.23;;;277.80;;
38226;SDS011;24026;49.446;8.576;2024-01-30T11:41:51;306.75;;;275.52;;
38226;SDS011;24026;49.446;8.576;2024-01-30T11:44:12;307.55;;;275.67;;
38226;SDS011;24026;49.446;8.576;2024-01-30T11:46:32;307.17;;;275.63;;
38226;SDS011;24026;49.446;8.576;2024-01-30T11:48:54;304.70;;;274.08;;
38226;SDS011;24026;49.446;8.576;2024-01-30T11:51:14;311.83;;;279.88;;
38226;SDS011;24026;49.446;8.576;2024-01-30T11:53:35;315.50;;;282.83;;
38226;SDS011;24026;49.446;8.576;2024-01-30T11:55:55;307.83;;;275.95;;
38226;SDS011;24026;49.446;8.576;2024-01-30T11:58:16;313.33;;;281.13;;
38226;SDS011;24026;49.446;8.576;2024-01-30T12:00:36;315.20;;;282.52;;
38226;SDS011;24026;49.446;8.576;2024-01-30T12:02:56;311.55;;;279.02;;
38226;SDS011;24026;49.446;8.576;2024-01-30T12:05:19;309.70;;;277.52;;
38226;SDS011;24026;49.446;8.576;2024-01-30T12:07:40;308.27;;;276.60;;
38226;SDS011;24026;49.446;8.576;2024-01-30T12:10:04;286.15;;;256.50;;
38226;SDS011;24026;49.446;8.576;2024-01-30T12:12:26;299.27;;;268.60;;
38226;SDS011;24026;49.446;8.576;2024-01-30T12:14:47;292.98;;;263.33;;
38226;SDS011;24026;49.446;8.576;2024-01-30T12:17:08;298.40;;;267.98;;
38226;SDS011;24026;49.446;8.576;2024-01-30T12:19:29;296.05;;;265.75;;
38226;SDS011;24026;49.446;8.576;2024-01-30T12:21:59;288.77;;;258.80;;
38226;SDS011;24026;49.446;8.576;2024-01-30T12:24:19;278.10;;;248.90;;
38226;SDS011;24026;49.446;8.576;2024-01-30T12:26:40;278.55;;;250.13;;
38226;SDS011;24026;49.446;8.576;2024-01-30T12:29:00;287.23;;;257.60;;
38226;SDS011;24026;49.446;8.576;2024-01-30T12:31:27;274.55;;;246.68;;
38226;SDS011;24026;49.446;8.576;2024-01-30T12:33:49;279.10;;;250.23;;
38226;SDS011;24026;49.446;8.576;2024-01-30T12:36:09;278.67;;;249.90;;
38226;SDS011;24026;49.446;8.576;2024-01-30T12:38:31;275.02;;;246.70;;
38226;SDS011;24026;49.446;8.576;2024-01-30T12:40:55;276.30;;;247.65;;
38226;SDS011;24026;49.446;8.576;2024-01-30T12:43:16;267.52;;;239.95;;
38226;SDS011;24026;49.446;8.576;2024-01-30T12:45:36;269.65;;;242.35;;
38226;SDS011;24026;49.446;8.576;2024-01-30T12:47:57;327.75;;;295.27;;
38226;SDS011;24026;49.446;8.576;2024-01-30T12:50:18;294.27;;;264.98;;
38226;SDS011;24026;49.446;8.576;2024-01-30T12:52:39;283.00;;;254.63;;
38226;SDS011;24026;49.446;8.576;2024-01-30T12:54:59;265.63;;;238.70;;
38226;SDS011;24026;49.446;8.576;2024-01-30T12:57:20;262.98;;;236.07;;
38226;SDS011;24026;49.446;8.576;2024-01-30T12:59:40;263.48;;;236.52;;
38226;SDS011;24026;49.446;8.576;2024-01-30T13:02:01;345.13;;;311.58;;
38226;SDS011;24026;49.446;8.576;2024-01-30T13:04:23;339.52;;;306.00;;
38226;SDS011;24026;49.446;8.576;2024-01-30T13:06:43;272.95;;;245.15;;
38226;SDS011;24026;49.446;8.576;2024-01-30T13:09:03;282.65;;;254.20;;
38226;SDS011;24026;49.446;8.576;2024-01-30T13:11:25;294.30;;;265.42;;
38226;SDS011;24026;49.446;8.576;2024-01-30T13:13:46;259.48;;;233.27;;
38226;SDS011;24026;49.446;8.576;2024-01-30T13:16:06;267.98;;;240.70;;
38226;SDS011;24026;49.446;8.576;2024-01-30T13:18:28;260.08;;;233.27;;
38226;SDS011;24026;49.446;8.576;2024-01-30T13:20:48;250.65;;;224.00;;
38226;SDS011;24026;49.446;8.576;2024-01-30T13:23:09;251.55;;;225.30;;
38226;SDS011;24026;49.446;8.576;2024-01-30T13:25:29;249.30;;;222.45;;